createdAt,value
2018-06-04T00:01:01.811Z,10.60
2018-06-04T00:03:31.049Z,10.50
2018-06-04T00:06:00.411Z,10.60
2018-06-04T00:08:29.692Z,10.50
2018-06-04T00:10:58.968Z,10.30
2018-06-04T00:13:28.428Z,10.30
2018-06-04T00:15:57.716Z,10.40
2018-06-04T00:18:26.973Z,10.40
2018-06-04T00:20:56.224Z,10.30
2018-06-04T00:23:25.468Z,10.30
2018-06-04T00:25:54.733Z,10.30
2018-06-04T00:28:23.980Z,10.30
2018-06-04T00:30:53.325Z,10.40
2018-06-04T00:33:22.573Z,10.30
2018-06-04T00:35:52.257Z,10.30
2018-06-04T00:38:21.512Z,10.20
2018-06-04T00:40:50.746Z,10.20
2018-06-04T00:43:20.053Z,10.30
2018-06-04T00:45:49.328Z,10.30
2018-06-04T00:48:18.645Z,10.10
2018-06-04T00:50:47.884Z,10.10
2018-06-04T00:53:17.135Z,10.00
2018-06-04T00:55:57.715Z,9.90
2018-06-04T00:58:26.985Z,9.90
2018-06-04T01:00:56.324Z,9.90
2018-06-04T01:03:25.554Z,9.80
2018-06-04T01:05:54.853Z,9.80
2018-06-04T01:08:24.103Z,9.80
2018-06-04T01:10:53.381Z,9.80
2018-06-04T01:13:22.728Z,9.80
2018-06-04T01:15:51.983Z,9.90
2018-06-04T01:18:21.238Z,9.90
2018-06-04T01:20:50.453Z,9.80
2018-06-04T01:23:19.673Z,9.80
2018-06-04T01:25:48.951Z,9.80
2018-06-04T01:28:18.228Z,9.80
2018-06-04T01:30:47.444Z,9.80
2018-06-04T01:33:16.674Z,9.70
2018-06-04T01:35:45.925Z,9.60
2018-06-04T01:38:15.382Z,9.70
2018-06-04T01:40:44.749Z,9.80
2018-06-04T01:43:13.975Z,9.80
2018-06-04T01:45:43.257Z,9.70
2018-06-04T01:48:12.520Z,9.70
2018-06-04T01:50:41.815Z,9.70
2018-06-04T01:53:11.037Z,9.60
2018-06-04T01:55:40.341Z,9.70
2018-06-04T01:58:09.587Z,9.70
2018-06-04T02:00:39.801Z,9.80
2018-06-04T02:03:09.053Z,9.80
2018-06-04T02:05:38.388Z,9.80
2018-06-04T02:08:07.616Z,9.70
2018-06-04T02:10:36.840Z,9.50
2018-06-04T02:13:06.084Z,9.50
2018-06-04T02:15:35.357Z,9.50
2018-06-04T02:18:04.683Z,9.60
2018-06-04T02:20:33.914Z,9.60
2018-06-04T02:23:09.639Z,9.60
2018-06-04T02:25:38.883Z,9.70
2018-06-04T02:28:08.160Z,9.70
2018-06-04T02:30:37.434Z,9.60
2018-06-04T02:33:06.677Z,9.50
2018-06-04T02:35:35.908Z,9.50
2018-06-04T02:38:05.249Z,9.50
2018-06-04T02:40:34.659Z,9.40
2018-06-04T02:43:03.881Z,9.40
2018-06-04T02:45:33.144Z,9.40
2018-06-04T02:48:02.501Z,9.40
2018-06-04T02:50:31.842Z,9.40
2018-06-04T02:53:01.172Z,9.30
2018-06-04T02:55:30.422Z,9.30
2018-06-04T02:57:59.668Z,9.40
2018-06-04T03:03:01.504Z,9.40
2018-06-04T03:05:30.711Z,9.50
2018-06-04T03:07:59.982Z,9.70
2018-06-04T03:10:29.283Z,9.70
2018-06-04T03:12:58.559Z,9.70
2018-06-04T03:15:27.853Z,9.70
2018-06-04T03:17:57.174Z,9.70
2018-06-04T03:20:27.448Z,9.60
2018-06-04T03:22:56.732Z,9.60
2018-06-04T03:25:25.990Z,9.50
2018-06-04T03:27:55.253Z,9.50
2018-06-04T03:30:24.533Z,9.50
2018-06-04T03:32:53.804Z,9.40
2018-06-04T03:35:23.072Z,9.50
2018-06-04T03:37:52.308Z,9.50
2018-06-04T03:40:21.595Z,9.50
2018-06-04T03:42:50.869Z,9.40
2018-06-04T03:45:20.126Z,9.40
2018-06-04T03:47:49.438Z,9.40
2018-06-04T03:50:18.687Z,9.50
2018-06-04T03:52:47.949Z,9.50
2018-06-04T03:55:17.229Z,9.60
2018-06-04T03:57:46.512Z,9.60
2018-06-04T04:00:15.782Z,9.60
2018-06-04T04:02:45.043Z,9.60
2018-06-04T04:05:14.368Z,9.60
2018-06-04T04:07:43.702Z,9.60
2018-06-04T04:10:13.008Z,9.70
2018-06-04T04:12:42.252Z,9.70
2018-06-04T04:15:11.489Z,9.90
2018-06-04T04:17:40.835Z,10.00
2018-06-04T04:20:10.083Z,10.10
2018-06-04T04:22:39.351Z,10.20
2018-06-04T04:25:08.688Z,10.30
2018-06-04T04:27:37.987Z,10.40
2018-06-04T04:30:07.305Z,10.50
2018-06-04T04:32:36.566Z,10.50
2018-06-04T04:35:05.892Z,10.60
2018-06-04T04:37:35.163Z,10.60
2018-06-04T04:40:04.451Z,10.60
2018-06-04T04:42:33.759Z,10.60
2018-06-04T04:45:03.188Z,10.70
2018-06-04T04:47:32.446Z,10.70
2018-06-04T04:50:01.757Z,10.80
2018-06-04T04:52:31.017Z,10.80
2018-06-04T04:55:00.268Z,10.90
2018-06-04T04:57:29.561Z,10.90
2018-06-04T05:00:00.089Z,11.00
2018-06-04T05:02:31.376Z,11.10
2018-06-04T05:05:00.750Z,11.20
2018-06-04T05:07:30.073Z,11.40
2018-06-04T05:09:59.383Z,11.50
2018-06-04T05:12:28.718Z,11.60
2018-06-04T05:14:58.011Z,11.70
2018-06-04T05:17:27.300Z,11.80
2018-06-04T05:19:56.580Z,11.90
2018-06-04T05:22:25.887Z,12.00
2018-06-04T05:24:55.165Z,12.10
2018-06-04T05:27:24.422Z,12.30
2018-06-04T05:29:53.680Z,12.40
2018-06-04T05:32:22.951Z,12.50
2018-06-04T05:34:52.204Z,12.70
2018-06-04T05:37:21.537Z,12.80
2018-06-04T05:39:50.916Z,12.90
2018-06-04T05:42:20.282Z,13.10
2018-06-04T05:44:49.492Z,13.20
2018-06-04T05:47:18.738Z,13.30
2018-06-04T05:49:48.027Z,13.50
2018-06-04T05:52:17.377Z,13.60
2018-06-04T05:54:46.860Z,13.80
2018-06-04T05:57:16.137Z,14.00
2018-06-04T05:59:45.401Z,14.20
2018-06-04T06:02:15.830Z,14.30
2018-06-04T06:04:46.129Z,14.50
2018-06-04T06:07:17.562Z,14.70
2018-06-04T06:09:49.052Z,14.80
2018-06-04T06:12:19.372Z,14.90
2018-06-04T06:14:49.179Z,15.10
2018-06-04T06:17:18.729Z,15.20
2018-06-04T06:19:48.891Z,15.40
2018-06-04T06:22:18.184Z,15.60
2018-06-04T06:24:48.759Z,15.70
2018-06-04T06:27:19.756Z,15.90
2018-06-04T06:29:50.900Z,15.90
2018-06-04T06:32:20.958Z,16.00
2018-06-04T06:34:50.850Z,16.10
2018-06-04T06:37:20.728Z,16.20
2018-06-04T06:39:51.942Z,16.40
2018-06-04T06:42:21.481Z,16.50
2018-06-04T06:44:50.931Z,16.60
2018-06-04T06:47:22.337Z,16.80
2018-06-04T06:49:53.287Z,16.80
2018-06-04T06:52:23.291Z,16.90
2018-06-04T06:54:53.687Z,16.80
2018-06-04T06:57:23.249Z,16.90
2018-06-04T06:59:53.721Z,17.10
2018-06-04T07:02:25.154Z,17.20
2018-06-04T07:04:56.398Z,17.20
2018-06-04T07:07:27.459Z,17.20
2018-06-04T07:09:57.165Z,17.30
2018-06-04T07:12:27.771Z,17.30
2018-06-04T07:14:58.733Z,17.40
2018-06-04T07:17:29.302Z,17.50
2018-06-04T07:20:00.186Z,17.60
2018-06-04T07:22:31.844Z,17.80
2018-06-04T07:25:02.662Z,18.10
2018-06-04T07:27:32.527Z,18.50
2018-06-04T07:30:02.098Z,19.00
2018-06-04T07:32:32.864Z,19.30
2018-06-04T07:35:02.956Z,19.80
2018-06-04T07:37:32.292Z,20.10
2018-06-04T07:40:03.795Z,20.70
2018-06-04T07:42:33.593Z,20.70
2018-06-04T07:45:05.074Z,20.90
2018-06-04T07:47:36.676Z,21.40
2018-06-04T07:50:06.481Z,21.50
2018-06-04T07:52:36.534Z,21.60
2018-06-04T07:55:06.965Z,21.90
2018-06-04T07:57:36.408Z,22.10
2018-06-04T08:00:06.378Z,22.30
2018-06-04T08:02:35.794Z,22.50
2018-06-04T08:05:05.110Z,22.30
2018-06-04T08:07:34.373Z,22.60
2018-06-04T08:10:03.847Z,22.80
2018-06-04T08:12:33.111Z,23.00
2018-06-04T08:15:02.496Z,22.70
2018-06-04T08:17:31.784Z,22.70
2018-06-04T08:20:01.092Z,22.40
2018-06-04T08:22:30.402Z,22.50
2018-06-04T08:24:59.723Z,22.20
2018-06-04T08:27:29.005Z,22.30
2018-06-04T08:29:58.305Z,22.50
2018-06-04T08:32:27.672Z,22.30
2018-06-04T08:34:56.967Z,22.60
2018-06-04T08:37:26.284Z,22.90
2018-06-04T08:39:55.543Z,23.00
2018-06-04T08:42:24.893Z,22.70
2018-06-04T08:44:54.212Z,22.40
2018-06-04T08:47:23.677Z,22.30
2018-06-04T08:49:52.975Z,22.50
2018-06-04T08:52:22.281Z,22.60
2018-06-04T08:54:51.592Z,23.00
2018-06-04T08:57:20.901Z,23.30
2018-06-04T08:59:50.267Z,23.50
2018-06-04T09:02:19.552Z,23.60
2018-06-04T09:04:48.886Z,24.00
2018-06-04T09:07:19.169Z,24.10
2018-06-04T09:09:48.512Z,23.50
2018-06-04T09:12:17.828Z,23.20
2018-06-04T09:14:47.119Z,23.30
2018-06-04T09:17:16.526Z,23.40
2018-06-04T09:19:45.783Z,23.30
2018-06-04T09:22:15.065Z,23.00
2018-06-04T09:24:44.359Z,23.20
2018-06-04T09:27:13.633Z,23.30
2018-06-04T09:29:42.993Z,23.00
2018-06-04T09:32:12.348Z,23.10
2018-06-04T09:34:41.644Z,22.90
2018-06-04T09:37:10.953Z,22.70
2018-06-04T09:39:40.287Z,22.70
2018-06-04T09:42:09.673Z,22.90
2018-06-04T09:44:39.025Z,23.10
2018-06-04T09:47:08.397Z,23.10
2018-06-04T09:49:37.902Z,22.90
2018-06-04T09:52:07.230Z,23.60
2018-06-04T09:54:36.581Z,24.00
2018-06-04T09:57:05.983Z,24.30
2018-06-04T09:59:35.303Z,24.10
2018-06-04T10:02:04.713Z,24.10
2018-06-04T10:04:34.145Z,23.80
2018-06-04T10:07:03.532Z,23.90
2018-06-04T10:09:32.886Z,23.80
2018-06-04T10:12:02.239Z,24.00
2018-06-04T10:14:31.559Z,24.20
2018-06-04T10:17:00.851Z,24.60
2018-06-04T10:19:30.120Z,24.30
2018-06-04T10:21:59.430Z,24.10
2018-06-04T10:24:28.844Z,23.70
2018-06-04T10:26:58.157Z,23.50
2018-06-04T10:29:27.561Z,24.00
2018-06-04T10:31:56.939Z,24.50
2018-06-04T10:34:26.498Z,24.80
2018-06-04T10:36:55.835Z,25.00
2018-06-04T10:39:25.128Z,24.50
2018-06-04T10:41:54.409Z,24.50
2018-06-04T10:44:23.708Z,24.30
2018-06-04T10:46:53.029Z,23.90
2018-06-04T10:49:22.348Z,23.40
2018-06-04T10:51:51.613Z,22.90
2018-06-04T10:54:20.848Z,22.80
2018-06-04T10:56:50.143Z,23.20
2018-06-04T10:59:19.369Z,23.80
2018-06-04T11:01:48.685Z,24.50
2018-06-04T11:04:17.956Z,24.70
2018-06-04T11:06:47.285Z,24.10
2018-06-04T11:09:16.579Z,24.10
2018-06-04T11:11:45.855Z,23.90
2018-06-04T11:14:15.212Z,23.90
2018-06-04T11:16:44.536Z,24.10
2018-06-04T11:19:13.804Z,24.10
2018-06-04T11:21:43.154Z,23.60
2018-06-04T11:24:12.454Z,23.30
2018-06-04T11:26:41.797Z,23.30
2018-06-04T11:29:11.057Z,23.20
2018-06-04T11:31:40.369Z,23.00
2018-06-04T11:34:09.620Z,23.40
2018-06-04T11:36:38.927Z,23.70
2018-06-04T11:39:08.423Z,24.00
2018-06-04T11:41:37.677Z,24.00
2018-06-04T11:44:06.983Z,23.60
2018-06-04T11:46:36.259Z,23.30
2018-06-04T11:49:05.528Z,23.00
2018-06-04T11:51:34.858Z,23.10
2018-06-04T11:54:04.216Z,23.20
2018-06-04T11:56:33.522Z,23.70
2018-06-04T11:59:02.796Z,24.20
2018-06-04T12:01:32.067Z,24.50
2018-06-04T12:04:01.368Z,24.80
2018-06-04T12:06:30.700Z,25.00
2018-06-04T12:09:00.007Z,24.90
2018-06-04T12:11:29.367Z,24.40
2018-06-04T12:13:58.589Z,23.70
2018-06-04T12:16:27.869Z,23.30
2018-06-04T12:18:57.242Z,23.10
2018-06-04T12:21:26.564Z,23.20
2018-06-04T12:23:55.845Z,23.70
2018-06-04T12:26:25.141Z,24.10
2018-06-04T12:28:54.427Z,24.50
2018-06-04T12:31:23.701Z,24.70
2018-06-04T12:33:53.092Z,24.30
2018-06-04T12:36:22.359Z,24.00
2018-06-04T12:38:51.623Z,24.10
2018-06-04T12:41:20.897Z,24.10
2018-06-04T12:43:50.180Z,24.50
2018-06-04T12:46:19.498Z,24.90
2018-06-04T12:48:48.794Z,25.20
2018-06-04T12:51:18.083Z,26.00
2018-06-04T12:53:47.356Z,26.80
2018-06-04T12:56:16.843Z,26.90
2018-06-04T12:58:46.227Z,26.50
2018-06-04T13:01:15.514Z,25.90
2018-06-04T13:03:44.801Z,25.10
2018-06-04T13:06:14.302Z,24.50
2018-06-04T13:08:43.649Z,24.00
2018-06-04T13:11:13.113Z,23.80
2018-06-04T13:13:42.391Z,23.50
2018-06-04T13:16:11.731Z,24.20
2018-06-04T13:18:41.038Z,25.10
2018-06-04T13:21:10.380Z,26.00
2018-06-04T13:23:39.745Z,25.90
2018-06-04T13:26:09.081Z,26.10
2018-06-04T13:28:38.385Z,26.30
2018-06-04T13:31:07.697Z,26.20
2018-06-04T13:33:37.025Z,25.90
2018-06-04T13:36:06.417Z,25.70
2018-06-04T13:38:35.658Z,26.20
2018-06-04T13:41:04.903Z,26.40
2018-06-04T13:43:34.122Z,26.70
2018-06-04T13:46:03.416Z,27.20
2018-06-04T13:48:32.703Z,27.20
2018-06-04T13:51:01.943Z,27.50
2018-06-04T13:53:31.217Z,27.60
2018-06-04T13:56:00.566Z,27.60
2018-06-04T13:58:29.909Z,27.10
2018-06-04T14:00:59.241Z,26.00
2018-06-04T14:03:28.562Z,25.40
2018-06-04T14:05:57.812Z,25.00
2018-06-04T14:08:27.072Z,24.30
2018-06-04T14:10:56.304Z,24.10
2018-06-04T14:13:25.546Z,23.90
2018-06-04T14:15:54.806Z,23.40
2018-06-04T14:18:24.019Z,23.00
2018-06-04T14:20:53.341Z,22.70
2018-06-04T14:23:22.585Z,22.40
2018-06-04T14:25:51.821Z,22.40
2018-06-04T14:28:21.053Z,22.50
2018-06-04T14:30:50.288Z,22.60
2018-06-04T14:33:19.589Z,22.70
2018-06-04T14:35:48.864Z,22.70
2018-06-04T14:38:18.115Z,22.80
2018-06-04T14:40:47.404Z,22.70
2018-06-04T14:43:16.657Z,22.60
2018-06-04T14:45:45.986Z,22.90
2018-06-04T14:48:15.518Z,23.70
2018-06-04T14:50:45.184Z,24.90
2018-06-04T14:53:14.471Z,26.10
2018-06-04T14:55:43.825Z,26.40
2018-06-04T14:58:13.143Z,26.70
2018-06-04T15:00:42.680Z,26.80
2018-06-04T15:03:12.037Z,27.10
2018-06-04T15:05:41.808Z,26.90
2018-06-04T15:08:11.180Z,26.40
2018-06-04T15:10:40.589Z,26.70
2018-06-04T15:13:10.008Z,26.50
2018-06-04T15:15:40.148Z,26.10
2018-06-04T15:18:09.507Z,26.70
2018-06-04T15:20:38.820Z,26.90
2018-06-04T15:23:08.123Z,27.40
2018-06-04T15:25:37.481Z,27.30
2018-06-04T15:28:06.809Z,27.10
2018-06-04T15:30:36.099Z,27.00
2018-06-04T15:33:05.551Z,27.40
2018-06-04T15:35:34.868Z,27.50
2018-06-04T15:38:04.173Z,27.20
2018-06-04T15:40:33.479Z,26.00
2018-06-04T15:43:02.801Z,24.90
2018-06-04T15:45:32.135Z,24.30
2018-06-04T15:48:01.521Z,23.80
2018-06-04T15:50:30.907Z,23.40
2018-06-04T15:53:00.351Z,23.20
2018-06-04T15:55:29.684Z,22.80
2018-06-04T15:57:59.186Z,22.50
2018-06-04T16:00:28.556Z,22.60
2018-06-04T16:02:58.091Z,23.40
2018-06-04T16:05:27.563Z,23.60
2018-06-04T16:07:56.909Z,23.70
2018-06-04T16:10:26.308Z,23.80
2018-06-04T16:12:55.820Z,24.10
2018-06-04T16:15:25.112Z,24.70
2018-06-04T16:17:54.447Z,24.70
2018-06-04T16:20:23.840Z,25.00
2018-06-04T16:22:53.318Z,25.30
2018-06-04T16:25:22.603Z,25.50
2018-06-04T16:27:51.842Z,25.80
2018-06-04T16:30:21.087Z,26.10
2018-06-04T16:32:50.350Z,26.20
2018-06-04T16:35:19.647Z,26.00
2018-06-04T16:37:48.993Z,25.80
2018-06-04T16:40:18.305Z,25.30
2018-06-04T16:42:47.598Z,24.90
2018-06-04T16:45:16.883Z,25.00
2018-06-04T16:47:46.264Z,25.00
2018-06-04T16:50:15.734Z,24.60
2018-06-04T16:52:44.929Z,24.70
2018-06-04T16:55:14.356Z,25.10
2018-06-04T16:57:43.678Z,24.70
2018-06-04T17:00:13.072Z,24.50
2018-06-04T17:02:42.445Z,24.20
2018-06-04T17:05:12.142Z,24.20
2018-06-04T17:07:41.517Z,24.10
2018-06-04T17:10:10.920Z,24.20
2018-06-04T17:12:40.190Z,24.20
2018-06-04T17:15:09.495Z,24.10
2018-06-04T17:17:38.815Z,23.90
2018-06-04T17:20:08.331Z,23.80
2018-06-04T17:22:37.659Z,23.30
2018-06-04T17:25:06.950Z,23.20
2018-06-04T17:27:36.293Z,23.30
2018-06-04T17:30:05.789Z,23.50
2018-06-04T17:32:35.089Z,23.70
2018-06-04T17:35:04.529Z,23.30
2018-06-04T17:37:33.882Z,23.10
2018-06-04T17:40:03.247Z,22.70
2018-06-04T17:42:32.564Z,22.20
2018-06-04T17:45:02.004Z,21.70
2018-06-04T17:47:31.446Z,21.70
2018-06-04T17:50:00.789Z,21.60
2018-06-04T17:52:30.203Z,21.30
2018-06-04T17:54:59.584Z,21.20
2018-06-04T17:57:28.951Z,21.30
2018-06-04T17:59:59.481Z,21.10
2018-06-04T18:02:28.826Z,20.70
2018-06-04T18:04:58.115Z,20.30
2018-06-04T18:07:27.425Z,20.00
2018-06-04T18:09:57.055Z,19.90
2018-06-04T18:12:26.404Z,19.80
2018-06-04T18:14:55.721Z,19.70
2018-06-04T18:17:25.087Z,19.60
2018-06-04T18:19:54.375Z,19.50
2018-06-04T18:22:23.763Z,19.60
2018-06-04T18:24:53.167Z,19.60
2018-06-04T18:27:22.603Z,19.60
2018-06-04T18:29:52.028Z,19.50
2018-06-04T18:32:21.295Z,19.30
2018-06-04T18:34:50.582Z,19.40
2018-06-04T18:37:20.079Z,19.30
2018-06-04T18:39:49.368Z,19.30
2018-06-04T18:42:18.728Z,19.10
2018-06-04T18:44:48.057Z,18.90
2018-06-04T18:47:17.465Z,18.70
2018-06-04T18:49:46.763Z,18.60
2018-06-04T18:52:16.033Z,18.50
2018-06-04T18:54:45.327Z,18.40
2018-06-04T18:57:14.811Z,18.20
2018-06-04T18:59:44.096Z,18.10
2018-06-04T19:02:13.438Z,18.00
2018-06-04T19:04:42.729Z,17.90
2018-06-04T19:07:12.037Z,17.90
2018-06-04T19:09:41.517Z,17.80
2018-06-04T19:12:10.818Z,17.70
2018-06-04T19:14:40.275Z,17.60
2018-06-04T19:17:09.545Z,17.50
2018-06-04T19:19:38.931Z,17.40
2018-06-04T19:22:08.262Z,17.40
2018-06-04T19:24:37.510Z,17.30
2018-06-04T19:27:06.777Z,17.20
2018-06-04T19:29:36.091Z,17.10
2018-06-04T19:32:05.348Z,17.00
2018-06-04T19:34:34.645Z,16.90
2018-06-04T19:37:04.023Z,16.90
2018-06-04T19:39:33.377Z,16.80
2018-06-04T19:42:02.644Z,16.80
2018-06-04T19:44:32.116Z,16.70
2018-06-04T19:47:01.431Z,16.60
2018-06-04T19:49:30.740Z,16.50
2018-06-04T19:52:00.000Z,16.40
2018-06-04T19:54:29.336Z,16.40
2018-06-04T19:56:58.740Z,16.30
2018-06-04T19:59:28.042Z,16.20
2018-06-04T20:01:57.360Z,16.20
2018-06-04T20:04:26.656Z,16.10
2018-06-04T20:06:56.027Z,16.00
2018-06-04T20:09:25.433Z,16.00
2018-06-04T20:11:54.779Z,15.90
2018-06-04T20:14:24.031Z,15.90
2018-06-04T20:16:53.419Z,15.70
2018-06-04T20:19:29.220Z,15.70
2018-06-04T20:21:58.608Z,15.60
2018-06-04T20:24:27.880Z,15.60
2018-06-04T20:26:57.132Z,15.50
2018-06-04T20:29:26.420Z,15.30
2018-06-04T20:31:55.672Z,15.30
2018-06-04T20:34:24.991Z,15.20
2018-06-04T20:36:54.411Z,15.00
2018-06-04T20:39:23.677Z,14.90
2018-06-04T20:41:53.029Z,14.80
2018-06-04T20:44:22.428Z,14.70
2018-06-04T20:46:51.817Z,14.70
2018-06-04T20:49:21.140Z,14.60
2018-06-04T20:51:50.380Z,14.50
2018-06-04T20:54:19.681Z,14.40
2018-06-04T20:56:49.015Z,14.30
2018-06-04T20:59:18.387Z,14.40
2018-06-04T21:01:47.643Z,14.30
2018-06-04T21:04:17.039Z,14.10
2018-06-04T21:06:46.322Z,14.10
2018-06-04T21:09:15.602Z,14.10
2018-06-04T21:11:44.983Z,14.10
2018-06-04T21:14:14.297Z,14.00
2018-06-04T21:16:43.687Z,13.90
2018-06-04T21:19:12.974Z,13.80
2018-06-04T21:21:42.209Z,13.70
2018-06-04T21:24:12.561Z,13.70
2018-06-04T21:26:41.815Z,13.70
2018-06-04T21:29:11.169Z,13.70
2018-06-04T21:31:40.470Z,13.70
2018-06-04T21:34:09.712Z,13.60
2018-06-04T21:36:39.008Z,13.60
2018-06-04T21:39:08.284Z,13.60
2018-06-04T21:41:37.550Z,13.60
2018-06-04T21:44:06.775Z,13.50
2018-06-04T21:46:36.014Z,13.50
2018-06-04T21:49:05.355Z,13.40
2018-06-04T21:51:34.581Z,13.30
2018-06-04T21:54:03.850Z,13.20
2018-06-04T21:56:33.120Z,13.10
2018-06-04T21:59:02.379Z,13.10
2018-06-04T22:01:31.620Z,13.00
2018-06-04T22:04:01.878Z,12.90
2018-06-04T22:06:31.645Z,12.90
2018-06-04T22:09:00.870Z,12.90
2018-06-04T22:11:30.099Z,12.80
2018-06-04T22:13:59.932Z,12.80
2018-06-04T22:16:29.173Z,12.80
2018-06-04T22:18:58.414Z,12.70
2018-06-04T22:21:27.701Z,12.70
2018-06-04T22:23:58.731Z,12.70
2018-06-04T22:26:31.952Z,12.80
2018-06-04T22:29:04.306Z,12.70
2018-06-04T22:31:33.559Z,12.70
2018-06-04T22:34:02.786Z,12.70
2018-06-04T22:36:32.098Z,12.70
2018-06-04T22:39:01.328Z,12.70
2018-06-04T22:41:31.522Z,12.70
2018-06-04T22:44:00.748Z,12.70
2018-06-04T22:46:29.988Z,12.70
2018-06-04T22:48:59.531Z,12.70
2018-06-04T22:51:28.775Z,12.60
2018-06-04T22:53:58.061Z,12.50
2018-06-04T22:56:27.296Z,12.50
2018-06-04T22:58:56.577Z,12.40
2018-06-04T23:01:25.797Z,12.40
2018-06-04T23:03:55.052Z,12.30
2018-06-04T23:06:24.300Z,12.30
2018-06-04T23:08:53.556Z,12.20
2018-06-04T23:11:22.896Z,12.10
2018-06-04T23:13:52.153Z,12.20
2018-06-04T23:16:21.484Z,12.10
2018-06-04T23:18:50.715Z,12.00
2018-06-04T23:21:19.938Z,12.10
2018-06-04T23:23:49.184Z,12.00
2018-06-04T23:26:18.433Z,11.80
2018-06-04T23:28:47.683Z,11.90
2018-06-04T23:31:16.928Z,11.80
2018-06-04T23:33:46.281Z,11.80
2018-06-04T23:36:15.533Z,11.80
2018-06-04T23:38:44.772Z,11.80
2018-06-04T23:41:14.008Z,11.70
2018-06-04T23:43:43.240Z,11.70
2018-06-04T23:46:12.618Z,11.70
2018-06-04T23:48:41.887Z,11.70
2018-06-04T23:51:11.152Z,11.70
2018-06-04T23:53:42.207Z,11.70
2018-06-04T23:56:17.295Z,11.60
2018-06-04T23:58:50.303Z,11.60
